sensor_id;sensor_type;location;lat;lon;timestamp;temperature;humidity
61398;DHT22;47267;48.130;-2.040;2023-03-11T00:02:14;19.20;46.90
61398;DHT22;47267;48.130;-2.040;2023-03-11T00:04:40;19.20;46.90
61398;DHT22;47267;48.130;-2.040;2023-03-11T00:07:07;19.20;46.90
61398;DHT22;47267;48.130;-2.040;2023-03-11T00:09:33;19.20;46.90
61398;DHT22;47267;48.130;-2.040;2023-03-11T00:11:59;19.20;46.90
61398;DHT22;47267;48.130;-2.040;2023-03-11T00:14:25;19.20;46.90
61398;DHT22;47267;48.130;-2.040;2023-03-11T00:16:51;19.20;46.90
61398;DHT22;47267;48.130;-2.040;2023-03-11T00:19:16;19.20;46.90
61398;DHT22;47267;48.130;-2.040;2023-03-11T00:21:42;19.20;46.90
61398;DHT22;47267;48.130;-2.040;2023-03-11T00:24:08;19.20;46.90
61398;DHT22;47267;48.130;-2.040;2023-03-11T00:26:34;19.20;46.90
61398;DHT22;47267;48.130;-2.040;2023-03-11T00:29:00;19.20;46.90
61398;DHT22;47267;48.130;-2.040;2023-03-11T00:31:25;19.20;47.50
61398;DHT22;47267;48.130;-2.040;2023-03-11T00:33:52;19.20;46.90
61398;DHT22;47267;48.130;-2.040;2023-03-11T00:36:28;19.20;46.90
61398;DHT22;47267;48.130;-2.040;2023-03-11T00:38:59;19.20;46.90
61398;DHT22;47267;48.130;-2.040;2023-03-11T00:41:28;19.10;46.80
61398;DHT22;47267;48.130;-2.040;2023-03-11T00:43:53;19.20;46.90
61398;DHT22;47267;48.130;-2.040;2023-03-11T00:46:19;19.20;46.90
61398;DHT22;47267;48.130;-2.040;2023-03-11T00:48:45;19.20;46.90
61398;DHT22;47267;48.130;-2.040;2023-03-11T00:51:13;19.20;46.90
61398;DHT22;47267;48.130;-2.040;2023-03-11T00:53:39;19.20;46.90
61398;DHT22;47267;48.130;-2.040;2023-03-11T00:56:10;19.20;46.90
61398;DHT22;47267;48.130;-2.040;2023-03-11T00:58:36;19.20;46.90
61398;DHT22;47267;48.130;-2.040;2023-03-11T01:01:14;19.10;46.80
61398;DHT22;47267;48.130;-2.040;2023-03-11T01:03:40;19.20;46.90
61398;DHT22;47267;48.130;-2.040;2023-03-11T01:06:07;19.10;46.80
61398;DHT22;47267;48.130;-2.040;2023-03-11T01:08:33;19.20;46.90
61398;DHT22;47267;48.130;-2.040;2023-03-11T01:10:59;19.20;46.90
61398;DHT22;47267;48.130;-2.040;2023-03-11T01:13:26;19.10;46.80
61398;DHT22;47267;48.130;-2.040;2023-03-11T01:15:52;19.20;46.90
61398;DHT22;47267;48.130;-2.040;2023-03-11T01:18:18;19.10;46.80
61398;DHT22;47267;48.130;-2.040;2023-03-11T01:20:45;19.20;46.90
61398;DHT22;47267;48.130;-2.040;2023-03-11T01:23:12;19.10;46.80
61398;DHT22;47267;48.130;-2.040;2023-03-11T01:25:38;19.10;46.80
61398;DHT22;47267;48.130;-2.040;2023-03-11T01:28:04;19.10;46.80
61398;DHT22;47267;48.130;-2.040;2023-03-11T01:30:30;19.10;46.80
61398;DHT22;47267;48.130;-2.040;2023-03-11T01:32:57;19.10;46.80
61398;DHT22;47267;48.130;-2.040;2023-03-11T01:35:25;19.10;46.80
61398;DHT22;47267;48.130;-2.040;2023-03-11T01:37:51;19.10;46.80
61398;DHT22;47267;48.130;-2.040;2023-03-11T01:40:28;19.10;46.80
61398;DHT22;47267;48.130;-2.040;2023-03-11T01:42:55;19.10;46.80
61398;DHT22;47267;48.130;-2.040;2023-03-11T01:45:32;19.10;46.80
61398;DHT22;47267;48.130;-2.040;2023-03-11T01:48:00;19.10;46.80
61398;DHT22;47267;48.130;-2.040;2023-03-11T01:50:35;19.10;46.80
61398;DHT22;47267;48.130;-2.040;2023-03-11T01:53:02;19.10;46.80
61398;DHT22;47267;48.130;-2.040;2023-03-11T01:55:30;19.10;46.80
61398;DHT22;47267;48.130;-2.040;2023-03-11T01:57:57;19.10;46.80
61398;DHT22;47267;48.130;-2.040;2023-03-11T02:00:24;19.10;46.80
61398;DHT22;47267;48.130;-2.040;2023-03-11T02:02:54;19.10;46.80
61398;DHT22;47267;48.130;-2.040;2023-03-11T02:05:22;19.10;46.80
61398;DHT22;47267;48.130;-2.040;2023-03-11T02:07:49;19.10;46.80
61398;DHT22;47267;48.130;-2.040;2023-03-11T02:10:16;19.10;46.80
61398;DHT22;47267;48.130;-2.040;2023-03-11T02:12:43;19.10;46.80
61398;DHT22;47267;48.130;-2.040;2023-03-11T02:15:10;19.10;46.80
61398;DHT22;47267;48.130;-2.040;2023-03-11T02:17:39;19.10;46.80
61398;DHT22;47267;48.130;-2.040;2023-03-11T02:20:19;19.10;46.80
61398;DHT22;47267;48.130;-2.040;2023-03-11T02:22:47;19.10;46.80
61398;DHT22;47267;48.130;-2.040;2023-03-11T02:28:07;19.10;46.80
61398;DHT22;47267;48.130;-2.040;2023-03-11T02:30:35;19.10;46.80
61398;DHT22;47267;48.130;-2.040;2023-03-11T02:33:01;19.10;46.80
61398;DHT22;47267;48.130;-2.040;2023-03-11T02:35:27;19.10;46.80
61398;DHT22;47267;48.130;-2.040;2023-03-11T02:37:53;19.10;46.80
61398;DHT22;47267;48.130;-2.040;2023-03-11T02:42:51;19.10;46.80
61398;DHT22;47267;48.130;-2.040;2023-03-11T02:45:19;19.10;46.80
61398;DHT22;47267;48.130;-2.040;2023-03-11T02:47:46;19.10;46.80
61398;DHT22;47267;48.130;-2.040;2023-03-11T02:50:14;19.10;46.80
61398;DHT22;47267;48.130;-2.040;2023-03-11T02:52:41;19.10;46.80
61398;DHT22;47267;48.130;-2.040;2023-03-11T02:55:08;19.00;46.70
61398;DHT22;47267;48.130;-2.040;2023-03-11T02:57:35;19.10;46.80
61398;DHT22;47267;48.130;-2.040;2023-03-11T03:00:01;19.10;46.80
61398;DHT22;47267;48.130;-2.040;2023-03-11T03:02:35;19.00;46.70
61398;DHT22;47267;48.130;-2.040;2023-03-11T03:05:01;19.00;46.70
61398;DHT22;47267;48.130;-2.040;2023-03-11T03:07:27;19.00;46.70
61398;DHT22;47267;48.130;-2.040;2023-03-11T03:09:52;19.00;46.70
61398;DHT22;47267;48.130;-2.040;2023-03-11T03:12:18;19.00;46.70
61398;DHT22;47267;48.130;-2.040;2023-03-11T03:14:44;19.00;46.70
61398;DHT22;47267;48.130;-2.040;2023-03-11T03:17:09;19.00;46.70
61398;DHT22;47267;48.130;-2.040;2023-03-11T03:19:35;19.00;46.70
61398;DHT22;47267;48.130;-2.040;2023-03-11T03:22:01;19.00;46.70
61398;DHT22;47267;48.130;-2.040;2023-03-11T03:24:26;19.00;46.70
61398;DHT22;47267;48.130;-2.040;2023-03-11T03:26:52;19.00;46.70
61398;DHT22;47267;48.130;-2.040;2023-03-11T03:29:18;19.00;46.70
61398;DHT22;47267;48.130;-2.040;2023-03-11T03:31:43;19.00;46.70
61398;DHT22;47267;48.130;-2.040;2023-03-11T03:34:09;19.00;46.70
61398;DHT22;47267;48.130;-2.040;2023-03-11T03:36:35;19.00;46.70
61398;DHT22;47267;48.130;-2.040;2023-03-11T03:39:01;19.00;46.70
61398;DHT22;47267;48.130;-2.040;2023-03-11T03:41:27;19.00;46.70
61398;DHT22;47267;48.130;-2.040;2023-03-11T03:43:53;19.00;46.70
61398;DHT22;47267;48.130;-2.040;2023-03-11T03:46:19;19.00;46.70
61398;DHT22;47267;48.130;-2.040;2023-03-11T03:48:45;19.00;46.60
61398;DHT22;47267;48.130;-2.040;2023-03-11T03:51:12;19.00;46.70
61398;DHT22;47267;48.130;-2.040;2023-03-11T03:53:39;19.00;46.70
61398;DHT22;47267;48.130;-2.040;2023-03-11T03:56:10;19.00;46.70
61398;DHT22;47267;48.130;-2.040;2023-03-11T03:58:37;19.00;46.70
61398;DHT22;47267;48.130;-2.040;2023-03-11T04:01:04;19.00;46.60
61398;DHT22;47267;48.130;-2.040;2023-03-11T04:03:30;19.00;46.60
61398;DHT22;47267;48.130;-2.040;2023-03-11T04:06:26;19.00;46.70
61398;DHT22;47267;48.130;-2.040;2023-03-11T04:08:52;19.00;46.60
61398;DHT22;47267;48.130;-2.040;2023-03-11T04:11:18;19.00;46.70
61398;DHT22;47267;48.130;-2.040;2023-03-11T04:13:44;18.90;46.60
61398;DHT22;47267;48.130;-2.040;2023-03-11T04:16:18;18.90;46.60
61398;DHT22;47267;48.130;-2.040;2023-03-11T04:18:45;19.00;46.60
61398;DHT22;47267;48.130;-2.040;2023-03-11T04:21:10;19.00;46.60
61398;DHT22;47267;48.130;-2.040;2023-03-11T04:23:36;19.00;46.60
61398;DHT22;47267;48.130;-2.040;2023-03-11T04:26:02;18.90;46.60
61398;DHT22;47267;48.130;-2.040;2023-03-11T04:28:28;19.00;46.60
61398;DHT22;47267;48.130;-2.040;2023-03-11T04:30:54;18.90;46.60
61398;DHT22;47267;48.130;-2.040;2023-03-11T04:33:19;18.90;46.60
61398;DHT22;47267;48.130;-2.040;2023-03-11T04:35:45;19.00;46.60
61398;DHT22;47267;48.130;-2.040;2023-03-11T04:38:11;18.90;46.60
61398;DHT22;47267;48.130;-2.040;2023-03-11T04:40:37;18.90;46.60
61398;DHT22;47267;48.130;-2.040;2023-03-11T04:43:03;18.90;46.60
61398;DHT22;47267;48.130;-2.040;2023-03-11T04:45:29;18.90;46.60
61398;DHT22;47267;48.130;-2.040;2023-03-11T04:47:55;18.90;46.60
61398;DHT22;47267;48.130;-2.040;2023-03-11T04:50:20;18.90;46.60
61398;DHT22;47267;48.130;-2.040;2023-03-11T04:52:46;18.90;46.60
61398;DHT22;47267;48.130;-2.040;2023-03-11T04:55:13;19.00;46.60
61398;DHT22;47267;48.130;-2.040;2023-03-11T04:57:42;18.90;46.60
61398;DHT22;47267;48.130;-2.040;2023-03-11T05:00:10;18.90;46.60
61398;DHT22;47267;48.130;-2.040;2023-03-11T05:02:38;18.90;46.60
61398;DHT22;47267;48.130;-2.040;2023-03-11T05:05:05;18.90;46.60
61398;DHT22;47267;48.130;-2.040;2023-03-11T05:07:31;18.90;46.60
61398;DHT22;47267;48.130;-2.040;2023-03-11T05:09:57;18.90;46.60
61398;DHT22;47267;48.130;-2.040;2023-03-11T05:12:23;18.90;46.50
61398;DHT22;47267;48.130;-2.040;2023-03-11T05:14:48;18.90;46.60
61398;DHT22;47267;48.130;-2.040;2023-03-11T05:17:14;18.90;46.60
61398;DHT22;47267;48.130;-2.040;2023-03-11T05:19:43;18.90;46.60
61398;DHT22;47267;48.130;-2.040;2023-03-11T05:22:08;18.90;46.50
61398;DHT22;47267;48.130;-2.040;2023-03-11T05:24:34;18.90;46.50
61398;DHT22;47267;48.130;-2.040;2023-03-11T05:27:00;18.90;46.60
61398;DHT22;47267;48.130;-2.040;2023-03-11T05:29:26;18.90;46.60
61398;DHT22;47267;48.130;-2.040;2023-03-11T05:31:52;18.90;46.50
61398;DHT22;47267;48.130;-2.040;2023-03-11T05:34:18;18.90;46.60
61398;DHT22;47267;48.130;-2.040;2023-03-11T05:36:44;18.90;46.50
61398;DHT22;47267;48.130;-2.040;2023-03-11T05:39:10;18.90;46.50
61398;DHT22;47267;48.130;-2.040;2023-03-11T05:41:35;18.90;46.60
61398;DHT22;47267;48.130;-2.040;2023-03-11T05:44:01;18.90;46.50
61398;DHT22;47267;48.130;-2.040;2023-03-11T05:46:28;19.00;46.60
61398;DHT22;47267;48.130;-2.040;2023-03-11T05:48:53;19.00;46.60
61398;DHT22;47267;48.130;-2.040;2023-03-11T05:51:19;18.90;46.50
61398;DHT22;47267;48.130;-2.040;2023-03-11T05:53:46;18.90;46.50
61398;DHT22;47267;48.130;-2.040;2023-03-11T05:56:20;19.00;46.60
61398;DHT22;47267;48.130;-2.040;2023-03-11T05:58:46;18.90;46.50
61398;DHT22;47267;48.130;-2.040;2023-03-11T06:01:14;18.90;46.50
61398;DHT22;47267;48.130;-2.040;2023-03-11T06:03:41;18.90;46.60
61398;DHT22;47267;48.130;-2.040;2023-03-11T06:06:09;18.90;46.50
61398;DHT22;47267;48.130;-2.040;2023-03-11T06:08:35;18.90;46.50
61398;DHT22;47267;48.130;-2.040;2023-03-11T06:11:03;18.90;46.50
61398;DHT22;47267;48.130;-2.040;2023-03-11T06:13:29;18.90;46.50
61398;DHT22;47267;48.130;-2.040;2023-03-11T06:15:54;19.00;46.60
61398;DHT22;47267;48.130;-2.040;2023-03-11T06:18:20;18.90;46.50
61398;DHT22;47267;48.130;-2.040;2023-03-11T06:20:46;18.90;46.50
61398;DHT22;47267;48.130;-2.040;2023-03-11T06:23:12;18.90;46.50
61398;DHT22;47267;48.130;-2.040;2023-03-11T06:25:37;19.00;46.60
61398;DHT22;47267;48.130;-2.040;2023-03-11T06:28:03;18.90;46.50
61398;DHT22;47267;48.130;-2.040;2023-03-11T06:30:29;18.90;46.50
61398;DHT22;47267;48.130;-2.040;2023-03-11T06:32:55;19.00;46.60
61398;DHT22;47267;48.130;-2.040;2023-03-11T06:35:20;18.90;46.50
61398;DHT22;47267;48.130;-2.040;2023-03-11T06:37:46;19.00;46.50
61398;DHT22;47267;48.130;-2.040;2023-03-11T06:40:12;18.90;46.50
61398;DHT22;47267;48.130;-2.040;2023-03-11T06:42:38;19.00;46.60
61398;DHT22;47267;48.130;-2.040;2023-03-11T06:45:04;18.90;46.50
61398;DHT22;47267;48.130;-2.040;2023-03-11T06:47:30;19.00;46.60
61398;DHT22;47267;48.130;-2.040;2023-03-11T06:49:56;19.00;46.60
61398;DHT22;47267;48.130;-2.040;2023-03-11T06:52:22;19.00;46.50
61398;DHT22;47267;48.130;-2.040;2023-03-11T06:54:47;18.90;46.50
61398;DHT22;47267;48.130;-2.040;2023-03-11T06:57:13;19.00;46.50
61398;DHT22;47267;48.130;-2.040;2023-03-11T06:59:39;19.00;46.50
61398;DHT22;47267;48.130;-2.040;2023-03-11T07:02:05;19.00;46.50
61398;DHT22;47267;48.130;-2.040;2023-03-11T07:04:31;19.00;46.50
61398;DHT22;47267;48.130;-2.040;2023-03-11T07:06:57;19.00;46.50
61398;DHT22;47267;48.130;-2.040;2023-03-11T07:09:23;19.00;46.50
61398;DHT22;47267;48.130;-2.040;2023-03-11T07:11:53;19.00;46.50
61398;DHT22;47267;48.130;-2.040;2023-03-11T07:14:18;19.00;46.50
61398;DHT22;47267;48.130;-2.040;2023-03-11T07:16:44;19.00;46.60
61398;DHT22;47267;48.130;-2.040;2023-03-11T07:19:11;19.00;46.50
61398;DHT22;47267;48.130;-2.040;2023-03-11T07:21:37;19.00;46.50
61398;DHT22;47267;48.130;-2.040;2023-03-11T07:24:04;19.00;46.50
61398;DHT22;47267;48.130;-2.040;2023-03-11T07:26:31;19.00;46.50
61398;DHT22;47267;48.130;-2.040;2023-03-11T07:28:57;19.00;46.50
61398;DHT22;47267;48.130;-2.040;2023-03-11T07:31:29;19.00;46.50
61398;DHT22;47267;48.130;-2.040;2023-03-11T07:33:57;19.00;46.50
61398;DHT22;47267;48.130;-2.040;2023-03-11T07:36:24;19.00;46.50
61398;DHT22;47267;48.130;-2.040;2023-03-11T07:38:58;19.00;46.50
61398;DHT22;47267;48.130;-2.040;2023-03-11T07:41:25;19.00;46.50
61398;DHT22;47267;48.130;-2.040;2023-03-11T07:43:54;19.00;46.50
61398;DHT22;47267;48.130;-2.040;2023-03-11T07:46:21;19.00;46.50
61398;DHT22;47267;48.130;-2.040;2023-03-11T07:48:48;18.90;46.50
61398;DHT22;47267;48.130;-2.040;2023-03-11T07:51:22;19.00;46.50
61398;DHT22;47267;48.130;-2.040;2023-03-11T07:53:50;19.00;46.50
61398;DHT22;47267;48.130;-2.040;2023-03-11T07:56:17;19.00;46.50
61398;DHT22;47267;48.130;-2.040;2023-03-11T07:58:44;19.00;46.50
61398;DHT22;47267;48.130;-2.040;2023-03-11T08:01:20;19.00;46.50
61398;DHT22;47267;48.130;-2.040;2023-03-11T08:03:49;19.00;46.50
61398;DHT22;47267;48.130;-2.040;2023-03-11T08:06:18;19.00;46.50
61398;DHT22;47267;48.130;-2.040;2023-03-11T08:08:44;19.00;46.50
61398;DHT22;47267;48.130;-2.040;2023-03-11T08:11:11;19.00;46.50
61398;DHT22;47267;48.130;-2.040;2023-03-11T08:13:38;19.00;46.50
61398;DHT22;47267;48.130;-2.040;2023-03-11T08:16:05;19.00;46.50
61398;DHT22;47267;48.130;-2.040;2023-03-11T08:18:32;19.00;46.50
61398;DHT22;47267;48.130;-2.040;2023-03-11T08:20:58;19.00;46.50
61398;DHT22;47267;48.130;-2.040;2023-03-11T08:23:24;19.00;46.50
61398;DHT22;47267;48.130;-2.040;2023-03-11T08:25:50;19.00;46.50
61398;DHT22;47267;48.130;-2.040;2023-03-11T08:28:15;19.00;46.50
61398;DHT22;47267;48.130;-2.040;2023-03-11T08:30:41;19.00;46.60
61398;DHT22;47267;48.130;-2.040;2023-03-11T08:33:07;19.00;46.50
61398;DHT22;47267;48.130;-2.040;2023-03-11T08:35:33;19.00;46.60
61398;DHT22;47267;48.130;-2.040;2023-03-11T08:37:58;19.00;46.60
61398;DHT22;47267;48.130;-2.040;2023-03-11T08:40:24;19.00;46.60
61398;DHT22;47267;48.130;-2.040;2023-03-11T08:42:50;19.00;46.60
61398;DHT22;47267;48.130;-2.040;2023-03-11T08:45:16;19.00;46.60
61398;DHT22;47267;48.130;-2.040;2023-03-11T08:47:42;19.00;46.60
61398;DHT22;47267;48.130;-2.040;2023-03-11T08:50:16;19.00;46.60
61398;DHT22;47267;48.130;-2.040;2023-03-11T08:52:42;19.00;46.60
61398;DHT22;47267;48.130;-2.040;2023-03-11T08:55:14;19.00;46.70
61398;DHT22;47267;48.130;-2.040;2023-03-11T08:57:42;19.00;47.20
61398;DHT22;47267;48.130;-2.040;2023-03-11T09:00:08;19.00;46.60
61398;DHT22;47267;48.130;-2.040;2023-03-11T09:02:35;19.00;46.70
61398;DHT22;47267;48.130;-2.040;2023-03-11T09:05:00;19.00;46.70
61398;DHT22;47267;48.130;-2.040;2023-03-11T09:07:26;19.00;46.70
61398;DHT22;47267;48.130;-2.040;2023-03-11T09:09:52;19.10;46.80
61398;DHT22;47267;48.130;-2.040;2023-03-11T09:12:19;19.00;46.70
61398;DHT22;47267;48.130;-2.040;2023-03-11T09:14:47;19.00;46.70
61398;DHT22;47267;48.130;-2.040;2023-03-11T09:17:14;19.10;46.80
61398;DHT22;47267;48.130;-2.040;2023-03-11T09:19:40;19.10;46.80
61398;DHT22;47267;48.130;-2.040;2023-03-11T09:22:06;19.10;46.90
61398;DHT22;47267;48.130;-2.040;2023-03-11T09:24:33;19.10;46.90
61398;DHT22;47267;48.130;-2.040;2023-03-11T09:26:59;19.10;46.90
61398;DHT22;47267;48.130;-2.040;2023-03-11T09:29:25;19.10;46.90
61398;DHT22;47267;48.130;-2.040;2023-03-11T09:31:51;19.20;46.90
61398;DHT22;47267;48.130;-2.040;2023-03-11T09:34:16;19.20;46.90
61398;DHT22;47267;48.130;-2.040;2023-03-11T09:36:42;19.20;47.00
61398;DHT22;47267;48.130;-2.040;2023-03-11T09:39:09;19.20;46.90
61398;DHT22;47267;48.130;-2.040;2023-03-11T09:44:20;19.20;47.00
61398;DHT22;47267;48.130;-2.040;2023-03-11T09:54:37;19.30;47.00
61398;DHT22;47267;48.130;-2.040;2023-03-11T09:57:05;19.30;47.10
61398;DHT22;47267;48.130;-2.040;2023-03-11T09:59:36;19.30;47.10
61398;DHT22;47267;48.130;-2.040;2023-03-11T10:02:04;19.40;47.10
61398;DHT22;47267;48.130;-2.040;2023-03-11T10:04:41;19.40;47.10
61398;DHT22;47267;48.130;-2.040;2023-03-11T10:07:15;19.40;47.10
61398;DHT22;47267;48.130;-2.040;2023-03-11T10:09:54;19.40;47.10
61398;DHT22;47267;48.130;-2.040;2023-03-11T10:12:36;19.40;47.10
61398;DHT22;47267;48.130;-2.040;2023-03-11T10:24:11;19.50;47.20
61398;DHT22;47267;48.130;-2.040;2023-03-11T10:26:43;19.50;47.20
61398;DHT22;47267;48.130;-2.040;2023-03-11T10:29:16;19.50;47.20
61398;DHT22;47267;48.130;-2.040;2023-03-11T10:32:01;19.50;47.30
61398;DHT22;47267;48.130;-2.040;2023-03-11T10:34:58;19.50;47.30
61398;DHT22;47267;48.130;-2.040;2023-03-11T10:37:27;19.60;47.30
61398;DHT22;47267;48.130;-2.040;2023-03-11T10:39:54;19.60;47.30
61398;DHT22;47267;48.130;-2.040;2023-03-11T10:42:24;19.60;47.30
61398;DHT22;47267;48.130;-2.040;2023-03-11T10:44:53;19.60;47.30
61398;DHT22;47267;48.130;-2.040;2023-03-11T10:47:21;19.60;47.40
61398;DHT22;47267;48.130;-2.040;2023-03-11T10:49:50;19.70;47.40
61398;DHT22;47267;48.130;-2.040;2023-03-11T10:52:17;19.60;47.30
61398;DHT22;47267;48.130;-2.040;2023-03-11T10:54:46;19.70;47.40
61398;DHT22;47267;48.130;-2.040;2023-03-11T11:00:28;19.70;47.40
61398;DHT22;47267;48.130;-2.040;2023-03-11T11:02:55;19.70;47.40
61398;DHT22;47267;48.130;-2.040;2023-03-11T11:05:31;19.70;47.40
61398;DHT22;47267;48.130;-2.040;2023-03-11T11:10:36;19.70;47.30
61398;DHT22;47267;48.130;-2.040;2023-03-11T11:15:49;19.80;47.30
61398;DHT22;47267;48.130;-2.040;2023-03-11T11:18:40;19.80;47.30
61398;DHT22;47267;48.130;-2.040;2023-03-11T11:21:07;19.80;47.30
61398;DHT22;47267;48.130;-2.040;2023-03-11T11:23:57;19.80;47.90
61398;DHT22;47267;48.130;-2.040;2023-03-11T11:26:26;19.80;47.30
61398;DHT22;47267;48.130;-2.040;2023-03-11T11:31:31;19.80;47.30
61398;DHT22;47267;48.130;-2.040;2023-03-11T11:33:57;19.80;47.30
61398;DHT22;47267;48.130;-2.040;2023-03-11T11:36:30;19.80;47.30
61398;DHT22;47267;48.130;-2.040;2023-03-11T11:38:58;19.80;47.30
61398;DHT22;47267;48.130;-2.040;2023-03-11T11:41:26;19.90;47.30
61398;DHT22;47267;48.130;-2.040;2023-03-11T11:43:54;19.80;47.30
61398;DHT22;47267;48.130;-2.040;2023-03-11T11:46:39;19.90;47.30
61398;DHT22;47267;48.130;-2.040;2023-03-11T11:49:28;19.90;47.30
61398;DHT22;47267;48.130;-2.040;2023-03-11T11:54:42;19.90;47.30
61398;DHT22;47267;48.130;-2.040;2023-03-11T11:57:13;19.90;47.30
61398;DHT22;47267;48.130;-2.040;2023-03-11T11:59:39;19.90;47.30
61398;DHT22;47267;48.130;-2.040;2023-03-11T12:02:38;19.90;47.20
61398;DHT22;47267;48.130;-2.040;2023-03-11T12:08:00;19.90;47.20
61398;DHT22;47267;48.130;-2.040;2023-03-11T12:15:45;19.90;47.20
61398;DHT22;47267;48.130;-2.040;2023-03-11T12:18:20;19.90;47.20
61398;DHT22;47267;48.130;-2.040;2023-03-11T12:20:58;19.90;47.20
61398;DHT22;47267;48.130;-2.040;2023-03-11T12:31:09;20.00;48.00
61398;DHT22;47267;48.130;-2.040;2023-03-11T12:33:54;20.00;47.30
61398;DHT22;47267;48.130;-2.040;2023-03-11T12:36:29;20.00;47.30
61398;DHT22;47267;48.130;-2.040;2023-03-11T12:38:57;20.00;47.30
61398;DHT22;47267;48.130;-2.040;2023-03-11T12:41:34;20.00;47.30
61398;DHT22;47267;48.130;-2.040;2023-03-11T12:44:20;20.00;47.30
61398;DHT22;47267;48.130;-2.040;2023-03-11T12:49:51;20.10;47.40
61398;DHT22;47267;48.130;-2.040;2023-03-11T12:52:27;20.00;47.30
61398;DHT22;47267;48.130;-2.040;2023-03-11T13:10:50;20.00;47.30
61398;DHT22;47267;48.130;-2.040;2023-03-11T13:13:35;20.00;47.30
61398;DHT22;47267;48.130;-2.040;2023-03-11T13:18:41;20.00;47.30
61398;DHT22;47267;48.130;-2.040;2023-03-11T13:21:37;20.00;47.30
61398;DHT22;47267;48.130;-2.040;2023-03-11T13:27:09;20.00;47.30
61398;DHT22;47267;48.130;-2.040;2023-03-11T13:35:21;20.00;47.30
61398;DHT22;47267;48.130;-2.040;2023-03-11T13:40:32;20.00;47.30
61398;DHT22;47267;48.130;-2.040;2023-03-11T13:43:03;20.00;47.30
61398;DHT22;47267;48.130;-2.040;2023-03-11T13:45:32;20.00;47.30
61398;DHT22;47267;48.130;-2.040;2023-03-11T13:48:02;20.00;47.30
61398;DHT22;47267;48.130;-2.040;2023-03-11T13:50:35;20.00;47.30
61398;DHT22;47267;48.130;-2.040;2023-03-11T13:53:06;20.00;47.20
61398;DHT22;47267;48.130;-2.040;2023-03-11T13:55:38;20.00;47.30
61398;DHT22;47267;48.130;-2.040;2023-03-11T13:58:35;20.00;47.30
61398;DHT22;47267;48.130;-2.040;2023-03-11T14:01:01;20.00;47.30
61398;DHT22;47267;48.130;-2.040;2023-03-11T14:03:40;20.00;47.30
61398;DHT22;47267;48.130;-2.040;2023-03-11T14:06:10;20.00;47.30
61398;DHT22;47267;48.130;-2.040;2023-03-11T14:08:37;20.00;47.30
61398;DHT22;47267;48.130;-2.040;2023-03-11T14:11:15;20.00;47.30
61398;DHT22;47267;48.130;-2.040;2023-03-11T14:13:49;20.00;47.30
61398;DHT22;47267;48.130;-2.040;2023-03-11T14:16:30;20.00;47.30
61398;DHT22;47267;48.130;-2.040;2023-03-11T14:19:05;20.00;47.30
61398;DHT22;47267;48.130;-2.040;2023-03-11T14:21:41;20.00;47.30
61398;DHT22;47267;48.130;-2.040;2023-03-11T14:24:19;20.00;47.30
61398;DHT22;47267;48.130;-2.040;2023-03-11T14:26:46;20.00;47.30
61398;DHT22;47267;48.130;-2.040;2023-03-11T14:29:18;20.00;47.30
61398;DHT22;47267;48.130;-2.040;2023-03-11T14:31:46;20.00;47.30
61398;DHT22;47267;48.130;-2.040;2023-03-11T14:34:19;20.00;47.30
61398;DHT22;47267;48.130;-2.040;2023-03-11T14:36:50;20.00;47.30
61398;DHT22;47267;48.130;-2.040;2023-03-11T14:39:30;20.00;47.40
61398;DHT22;47267;48.130;-2.040;2023-03-11T14:44:36;20.00;47.30
61398;DHT22;47267;48.130;-2.040;2023-03-11T14:49:41;20.00;47.30
61398;DHT22;47267;48.130;-2.040;2023-03-11T14:52:15;20.00;47.30
61398;DHT22;47267;48.130;-2.040;2023-03-11T14:54:43;20.00;47.30
61398;DHT22;47267;48.130;-2.040;2023-03-11T14:59:51;20.00;47.40
61398;DHT22;47267;48.130;-2.040;2023-03-11T15:04:56;20.00;47.30
61398;DHT22;47267;48.130;-2.040;2023-03-11T15:07:23;20.00;47.40
61398;DHT22;47267;48.130;-2.040;2023-03-11T15:09:49;20.00;47.40
61398;DHT22;47267;48.130;-2.040;2023-03-11T15:12:36;20.00;47.40
61398;DHT22;47267;48.130;-2.040;2023-03-11T15:15:20;20.00;47.40
61398;DHT22;47267;48.130;-2.040;2023-03-11T15:17:55;20.10;47.40
61398;DHT22;47267;48.130;-2.040;2023-03-11T15:20:34;20.10;47.50
61398;DHT22;47267;48.130;-2.040;2023-03-11T15:23:02;20.10;47.50
61398;DHT22;47267;48.130;-2.040;2023-03-11T15:25:32;20.10;47.50
61398;DHT22;47267;48.130;-2.040;2023-03-11T15:27:58;20.10;47.50
61398;DHT22;47267;48.130;-2.040;2023-03-11T15:30:26;20.10;47.50
61398;DHT22;47267;48.130;-2.040;2023-03-11T15:32:52;20.10;47.50
61398;DHT22;47267;48.130;-2.040;2023-03-11T15:35:28;20.10;47.50
61398;DHT22;47267;48.130;-2.040;2023-03-11T15:38:24;20.10;47.50
61398;DHT22;47267;48.130;-2.040;2023-03-11T15:41:00;20.10;47.50
61398;DHT22;47267;48.130;-2.040;2023-03-11T15:43:30;20.10;47.50
61398;DHT22;47267;48.130;-2.040;2023-03-11T15:45:59;20.10;47.50
61398;DHT22;47267;48.130;-2.040;2023-03-11T15:48:25;20.10;47.50
61398;DHT22;47267;48.130;-2.040;2023-03-11T15:50:57;20.20;47.50
61398;DHT22;47267;48.130;-2.040;2023-03-11T15:53:25;20.10;47.50
61398;DHT22;47267;48.130;-2.040;2023-03-11T15:55:53;20.20;47.50
61398;DHT22;47267;48.130;-2.040;2023-03-11T15:58:20;20.20;47.50
61398;DHT22;47267;48.130;-2.040;2023-03-11T16:00:51;20.20;47.50
61398;DHT22;47267;48.130;-2.040;2023-03-11T16:03:18;20.20;47.50
61398;DHT22;47267;48.130;-2.040;2023-03-11T16:05:44;20.20;47.60
61398;DHT22;47267;48.130;-2.040;2023-03-11T16:08:10;20.20;47.50
61398;DHT22;47267;48.130;-2.040;2023-03-11T16:10:36;20.20;47.50
61398;DHT22;47267;48.130;-2.040;2023-03-11T16:13:02;20.20;47.50
61398;DHT22;47267;48.130;-2.040;2023-03-11T16:15:30;20.20;47.50
61398;DHT22;47267;48.130;-2.040;2023-03-11T16:17:58;20.20;47.50
61398;DHT22;47267;48.130;-2.040;2023-03-11T16:20:26;20.20;47.60
61398;DHT22;47267;48.130;-2.040;2023-03-11T16:22:54;20.20;47.50
61398;DHT22;47267;48.130;-2.040;2023-03-11T16:25:35;20.20;47.50
61398;DHT22;47267;48.130;-2.040;2023-03-11T16:28:03;20.20;47.50
61398;DHT22;47267;48.130;-2.040;2023-03-11T16:30:30;20.20;47.60
61398;DHT22;47267;48.130;-2.040;2023-03-11T16:32:56;20.20;47.60
61398;DHT22;47267;48.130;-2.040;2023-03-11T16:35:22;20.20;47.60
61398;DHT22;47267;48.130;-2.040;2023-03-11T16:37:48;20.20;47.60
61398;DHT22;47267;48.130;-2.040;2023-03-11T16:40:17;20.20;47.50
61398;DHT22;47267;48.130;-2.040;2023-03-11T16:42:43;20.20;47.60
61398;DHT22;47267;48.130;-2.040;2023-03-11T16:45:14;20.20;47.60
61398;DHT22;47267;48.130;-2.040;2023-03-11T16:47:40;20.20;47.60
61398;DHT22;47267;48.130;-2.040;2023-03-11T16:50:06;20.20;47.60
61398;DHT22;47267;48.130;-2.040;2023-03-11T16:52:32;20.20;47.60
61398;DHT22;47267;48.130;-2.040;2023-03-11T16:54:59;20.20;47.60
61398;DHT22;47267;48.130;-2.040;2023-03-11T16:57:25;20.20;47.60
61398;DHT22;47267;48.130;-2.040;2023-03-11T16:59:50;20.20;47.60
61398;DHT22;47267;48.130;-2.040;2023-03-11T17:02:17;20.20;47.60
61398;DHT22;47267;48.130;-2.040;2023-03-11T17:04:42;20.20;47.60